Time;durP1;ratioP1;P1;durP2;ratioP2;P2;SDS_P1;SDS_P2;PMS_P1;PMS_P2;Temp;Humidity;BMP_temperature;BMP_pressure;BME280_temperature;BME280_humidity;BME280_pressure;Samples;Min_cycle;Max_cycle;Signal;HPM_P1;HPM_P2
2021/07/27 00:00:34;;;;;;;16.10;10.73;;;;;;;;;;5074576;28;20028;-83
2021/07/27 00:03:00;;;;;;;11.52;9.02;;;;;;;;;;5074319;28;20103;-82
2021/07/27 00:05:26;;;;;;;11.02;9.95;;;;;;;;;;5074018;28;20028;-82
2021/07/27 00:07:52;;;;;;;9.93;8.98;;;;;;;;;;5073569;28;20033;-82
2021/07/27 00:10:18;;;;;;;10.73;9.18;;;;;;;;;;5074695;28;20033;-82
2021/07/27 00:12:44;;;;;;;10.13;9.10;;;;;;;;;;5075819;28;20108;-82
2021/07/27 00:15:11;;;;;;;9.93;8.93;;;;;;;;;;5074125;28;20063;-82
2021/07/27 00:17:37;;;;;;;10.15;9.20;;;;;;;;;;5073711;28;20093;-82
2021/07/27 00:20:03;;;;;;;10.07;9.18;;;;;;;;;;5073677;28;20035;-82
2021/07/27 00:22:29;;;;;;;14.73;10.45;;;;;;;;;;5073695;28;20024;-82
2021/07/27 00:24:55;;;;;;;10.98;9.38;;;;;;;;;;5073857;28;20077;-83
2021/07/27 00:27:22;;;;;;;10.43;9.43;;;;;;;;;;5074209;28;20036;-82
2021/07/27 00:29:48;;;;;;;10.20;9.05;;;;;;;;;;5073705;28;20033;-82
2021/07/27 00:32:14;;;;;;;9.75;8.85;;;;;;;;;;5073733;28;20051;-83
2021/07/27 00:34:40;;;;;;;11.27;10.07;;;;;;;;;;5074120;28;20064;-83
2021/07/27 00:37:15;;;;;;;9.88;9.07;;;;;;;;;;5073610;28;20508;-82
2021/07/27 00:39:42;;;;;;;11.18;9.68;;;;;;;;;;5074056;28;20024;-81
2021/07/27 00:42:08;;;;;;;10.43;9.52;;;;;;;;;;5073632;28;20093;-87
2021/07/27 00:44:34;;;;;;;10.85;9.82;;;;;;;;;;5074375;28;20020;-87
2021/07/27 00:47:00;;;;;;;13.02;8.93;;;;;;;;;;5073565;28;20482;-87
2021/07/27 00:49:26;;;;;;;9.85;8.95;;;;;;;;;;5073692;28;20486;-87
2021/07/27 00:51:52;;;;;;;11.63;9.82;;;;;;;;;;5073394;28;20348;-87
2021/07/27 00:54:18;;;;;;;12.23;9.10;;;;;;;;;;5073688;28;20180;-87
2021/07/27 00:56:44;;;;;;;11.43;8.80;;;;;;;;;;5077212;28;20040;-87
2021/07/27 00:59:10;;;;;;;10.23;8.23;;;;;;;;;;5077579;28;20028;-87
2021/07/27 01:01:36;;;;;;;8.52;7.88;;;;;;;;;;5077112;28;20020;-88
2021/07/27 01:04:02;;;;;;;9.77;8.85;;;;;;;;;;5076637;28;20103;-87
2021/07/27 01:06:28;;;;;;;11.00;9.52;;;;;;;;;;5076815;28;20048;-87
2021/07/27 01:08:54;;;;;;;10.02;8.50;;;;;;;;;;5076899;28;20070;-87
2021/07/27 01:11:22;;;;;;;9.55;8.73;;;;;;;;;;5076654;28;20050;-87
2021/07/27 01:13:48;;;;;;;8.95;8.20;;;;;;;;;;5076688;28;20029;-87
2021/07/27 01:16:15;;;;;;;10.20;9.20;;;;;;;;;;5076350;28;20137;-87
2021/07/27 01:18:50;;;;;;;9.00;8.20;;;;;;;;;;5076610;28;20021;-87
2021/07/27 01:37:58;;;;;;;10.25;9.02;;;;;;;;;;5075162;28;20044;-86
2021/07/27 01:40:26;;;;;;;9.23;8.32;;;;;;;;;;5077229;28;20050;-86
2021/07/27 01:42:52;;;;;;;8.90;8.13;;;;;;;;;;5076389;28;20024;-86
2021/07/27 01:45:18;;;;;;;9.07;8.18;;;;;;;;;;5076681;28;20115;-87
2021/07/27 01:47:44;;;;;;;9.32;8.48;;;;;;;;;;5076349;28;20032;-87
2021/07/27 01:50:11;;;;;;;9.18;8.38;;;;;;;;;;5076312;28;20112;-87
2021/07/27 01:52:37;;;;;;;11.48;8.65;;;;;;;;;;5075754;28;20078;-87
2021/07/27 01:55:08;;;;;;;10.00;8.55;;;;;;;;;;5076512;28;20020;-88
2021/07/27 01:57:34;;;;;;;9.10;7.97;;;;;;;;;;5076285;28;20138;-87
2021/07/27 02:00:03;;;;;;;9.27;8.48;;;;;;;;;;5075625;28;20153;-87
2021/07/27 02:02:29;;;;;;;8.88;8.02;;;;;;;;;;5075892;28;20028;-88
2021/07/27 02:04:55;;;;;;;16.65;8.43;;;;;;;;;;5075459;28;20031;-87
2021/07/27 02:07:21;;;;;;;9.05;8.23;;;;;;;;;;5075045;28;20378;-87
2021/07/27 02:09:50;;;;;;;10.23;9.32;;;;;;;;;;5075698;28;20573;-86
2021/07/27 02:12:19;;;;;;;8.68;7.88;;;;;;;;;;5076166;28;20021;-87
2021/07/27 02:17:35;;;;;;;8.75;7.85;;;;;;;;;;5074491;28;20093;-87
2021/07/27 02:20:02;;;;;;;9.00;8.20;;;;;;;;;;5075284;28;20424;-87
2021/07/27 02:22:28;;;;;;;9.25;8.55;;;;;;;;;;5075694;28;20029;-87
2021/07/27 02:24:54;;;;;;;9.20;8.32;;;;;;;;;;5075933;28;20035;-87
2021/07/27 02:27:20;;;;;;;11.43;8.43;;;;;;;;;;5075856;28;20020;-87
2021/07/27 02:29:46;;;;;;;9.55;8.65;;;;;;;;;;5075272;28;20017;-86
2021/07/27 02:32:12;;;;;;;10.40;7.80;;;;;;;;;;5075302;28;20025;-87
2021/07/27 02:34:38;;;;;;;19.73;8.07;;;;;;;;;;5075762;28;20051;-87
2021/07/27 02:37:04;;;;;;;10.20;7.82;;;;;;;;;;5075034;28;20037;-87
2021/07/27 02:39:32;;;;;;;8.40;7.70;;;;;;;;;;5075129;28;20027;-88
2021/07/27 02:41:58;;;;;;;8.52;7.72;;;;;;;;;;5074920;28;20035;-88
2021/07/27 02:44:24;;;;;;;9.50;8.70;;;;;;;;;;5075346;28;20094;-87
2021/07/27 02:46:51;;;;;;;8.90;8.10;;;;;;;;;;5074962;28;20074;-87
2021/07/27 02:49:17;;;;;;;8.93;8.13;;;;;;;;;;5075041;28;20489;-88
2021/07/27 02:51:50;;;;;;;9.40;8.50;;;;;;;;;;5074876;28;20028;-88
2021/07/27 02:54:16;;;;;;;8.32;7.53;;;;;;;;;;5074999;28;20498;-88
2021/07/27 02:56:42;;;;;;;8.60;7.85;;;;;;;;;;5075148;28;20043;-88
2021/07/27 02:59:08;;;;;;;8.88;7.93;;;;;;;;;;5074904;28;20028;-88
2021/07/27 03:01:34;;;;;;;10.07;9.05;;;;;;;;;;5074364;28;20082;-88
2021/07/27 03:04:00;;;;;;;11.13;7.78;;;;;;;;;;5074575;28;20032;-89
2021/07/27 03:06:28;;;;;;;8.07;7.28;;;;;;;;;;5075268;28;20025;-89
2021/07/27 03:09:14;;;;;;;9.43;8.52;;;;;;;;;;5075035;28;20033;-88
2021/07/27 03:11:40;;;;;;;8.40;7.70;;;;;;;;;;5074552;28;20029;-81
2021/07/27 03:14:06;;;;;;;11.68;8.70;;;;;;;;;;5074018;28;20496;-83
2021/07/27 03:16:32;;;;;;;9.45;8.27;;;;;;;;;;5074075;28;20413;-82
2021/07/27 03:18:58;;;;;;;19.13;12.20;;;;;;;;;;5073921;28;20032;-81
2021/07/27 03:21:25;;;;;;;45.20;21.25;;;;;;;;;;5073956;28;20028;-82
2021/07/27 03:23:51;;;;;;;30.50;16.50;;;;;;;;;;5074494;28;20031;-83
2021/07/27 03:26:17;;;;;;;34.30;17.17;;;;;;;;;;5073779;28;20035;-82
2021/07/27 03:28:43;;;;;;;26.77;15.27;;;;;;;;;;5074333;28;20028;-85
2021/07/27 03:31:09;;;;;;;23.85;15.52;;;;;;;;;;5074396;28;20036;-82
2021/07/27 03:33:35;;;;;;;22.30;14.55;;;;;;;;;;5073318;28;20033;-82
2021/07/27 03:36:01;;;;;;;25.45;14.45;;;;;;;;;;5074001;28;20027;-83
2021/07/27 03:38:28;;;;;;;23.65;15.07;;;;;;;;;;5074203;28;20032;-81
2021/07/27 03:41:02;;;;;;;21.17;12.77;;;;;;;;;;5074102;28;20074;-85
2021/07/27 03:43:28;;;;;;;21.55;14.07;;;;;;;;;;5073990;28;20036;-80
2021/07/27 03:45:54;;;;;;;20.98;15.23;;;;;;;;;;5074053;28;20111;-81
2021/07/27 03:48:20;;;;;;;17.60;13.70;;;;;;;;;;5074052;28;20029;-83
2021/07/27 03:50:46;;;;;;;27.60;12.68;;;;;;;;;;5073977;28;20025;-84
2021/07/27 03:53:16;;;;;;;17.45;14.10;;;;;;;;;;5073931;28;20112;-84
2021/07/27 03:55:42;;;;;;;26.08;13.57;;;;;;;;;;5073790;28;20017;-84
2021/07/27 03:58:08;;;;;;;18.58;11.48;;;;;;;;;;5073283;28;20043;-81
2021/07/27 04:00:34;;;;;;;17.38;12.82;;;;;;;;;;5074576;28;20078;-85
2021/07/27 04:03:02;;;;;;;18.23;13.35;;;;;;;;;;5074171;28;20028;-85
2021/07/27 04:05:28;;;;;;;12.98;11.45;;;;;;;;;;5073960;28;20031;-85
2021/07/27 04:07:54;;;;;;;16.65;12.30;;;;;;;;;;5073730;28;20039;-84
2021/07/27 04:10:20;;;;;;;18.02;13.18;;;;;;;;;;5074016;28;20025;-86
2021/07/27 04:12:46;;;;;;;12.38;11.30;;;;;;;;;;5074008;28;20027;-87
2021/07/27 04:15:12;;;;;;;12.73;11.48;;;;;;;;;;5074011;28;20063;-86
2021/07/27 04:17:38;;;;;;;13.85;11.15;;;;;;;;;;5073822;28;20082;-87
2021/07/27 04:20:04;;;;;;;18.58;11.20;;;;;;;;;;5073566;28;20028;-87
2021/07/27 04:22:30;;;;;;;17.80;12.52;;;;;;;;;;5073911;28;20397;-87
2021/07/27 04:24:57;;;;;;;17.75;10.98;;;;;;;;;;5073993;28;20040;-86
2021/07/27 04:27:24;;;;;;;15.25;11.40;;;;;;;;;;5073705;28;20059;-87
2021/07/27 04:29:50;;;;;;;14.63;11.60;;;;;;;;;;5074882;28;20052;-87
2021/07/27 04:32:16;;;;;;;12.18;10.98;;;;;;;;;;5077576;28;20095;-87
2021/07/27 04:34:42;;;;;;;13.30;11.35;;;;;;;;;;5077934;28;20478;-86
2021/07/27 04:37:08;;;;;;;13.90;10.38;;;;;;;;;;5077463;28;20162;-86
2021/07/27 04:39:35;;;;;;;11.95;10.73;;;;;;;;;;5077342;28;20020;-82
2021/07/27 04:42:01;;;;;;;14.43;11.32;;;;;;;;;;5076983;28;20044;-82
2021/07/27 04:44:27;;;;;;;23.70;11.00;;;;;;;;;;5078122;28;20082;-83
2021/07/27 04:46:53;;;;;;;13.10;11.20;;;;;;;;;;5077309;28;20055;-81
2021/07/27 04:49:19;;;;;;;14.93;10.57;;;;;;;;;;5077287;28;20066;-81
2021/07/27 04:51:45;;;;;;;11.95;9.95;;;;;;;;;;5076933;28;20016;-84
2021/07/27 04:54:16;;;;;;;12.27;10.43;;;;;;;;;;5077454;28;20083;-82
2021/07/27 04:56:42;;;;;;;12.70;10.20;;;;;;;;;;5077211;28;20072;-82
2021/07/27 04:59:08;;;;;;;11.02;10.02;;;;;;;;;;5077253;28;20398;-82
2021/07/27 05:01:38;;;;;;;12.18;11.02;;;;;;;;;;5077211;28;20029;-82
2021/07/27 05:04:04;;;;;;;12.80;11.45;;;;;;;;;;5076751;28;20082;-82
2021/07/27 05:06:30;;;;;;;12.77;11.35;;;;;;;;;;5077245;28;20024;-84
2021/07/27 05:08:56;;;;;;;10.20;9.20;;;;;;;;;;5076643;28;20016;-74
2021/07/27 05:11:23;;;;;;;27.42;10.32;;;;;;;;;;5078864;28;20025;-78
2021/07/27 05:13:49;;;;;;;23.52;10.77;;;;;;;;;;5077121;28;20111;-79
2021/07/27 05:16:18;;;;;;;11.48;10.32;;;;;;;;;;5076796;28;20021;-80
2021/07/27 05:18:44;;;;;;;11.07;10.02;;;;;;;;;;5077604;28;20036;-82
2021/07/27 05:21:11;;;;;;;11.13;9.73;;;;;;;;;;5089137;28;20031;-80
2021/07/27 05:23:37;;;;;;;13.88;10.13;;;;;;;;;;5097372;28;20469;-79
2021/07/27 05:26:05;;;;;;;11.85;10.48;;;;;;;;;;5097343;28;20420;-84
2021/07/27 05:28:31;;;;;;;13.07;9.98;;;;;;;;;;5097305;28;20027;-78
2021/07/27 05:30:57;;;;;;;15.00;9.85;;;;;;;;;;5095391;28;20527;-80
2021/07/27 05:33:23;;;;;;;14.23;9.65;;;;;;;;;;5098242;28;20032;-80
2021/07/27 05:35:49;;;;;;;13.20;10.35;;;;;;;;;;5097369;28;20070;-79
2021/07/27 05:38:15;;;;;;;11.35;10.07;;;;;;;;;;5097472;28;20032;-80
2021/07/27 05:40:41;;;;;;;10.52;9.23;;;;;;;;;;5094928;28;20132;-80
2021/07/27 05:43:08;;;;;;;12.05;8.73;;;;;;;;;;5097827;28;20068;-77
2021/07/27 05:45:34;;;;;;;17.35;9.23;;;;;;;;;;5097378;28;20031;-78
2021/07/27 05:48:00;;;;;;;10.90;9.80;;;;;;;;;;5096766;28;20024;-78
2021/07/27 05:50:26;;;;;;;11.20;10.05;;;;;;;;;;5095419;28;20031;-76
2021/07/27 05:52:59;;;;;;;10.02;9.02;;;;;;;;;;5096341;28;20061;-80
2021/07/27 05:55:25;;;;;;;9.18;8.27;;;;;;;;;;5097633;28;20028;-80
2021/07/27 05:57:51;;;;;;;10.85;9.68;;;;;;;;;;5097436;28;20482;-77
2021/07/27 06:00:18;;;;;;;15.25;9.05;;;;;;;;;;5094554;28;20412;-80
2021/07/27 06:02:44;;;;;;;9.98;8.23;;;;;;;;;;5096526;28;20020;-78
2021/07/27 06:05:10;;;;;;;13.30;10.13;;;;;;;;;;5096680;28;20031;-77
2021/07/27 06:07:36;;;;;;;14.75;9.80;;;;;;;;;;5096510;28;20054;-77
2021/07/27 06:10:02;;;;;;;15.80;9.23;;;;;;;;;;5092079;28;20362;-76
2021/07/27 06:12:28;;;;;;;13.02;9.05;;;;;;;;;;5076188;28;20075;-77
2021/07/27 06:14:54;;;;;;;9.57;8.10;;;;;;;;;;5076241;28;20056;-75
2021/07/27 06:17:20;;;;;;;9.75;8.60;;;;;;;;;;5075984;28;20036;-77
2021/07/27 06:19:46;;;;;;;10.30;8.88;;;;;;;;;;5075070;28;20029;-80
2021/07/27 06:22:13;;;;;;;17.73;9.77;;;;;;;;;;5075275;28;20027;-83
2021/07/27 06:24:39;;;;;;;9.35;8.40;;;;;;;;;;5075325;28;20359;-75
2021/07/27 06:27:05;;;;;;;12.82;8.18;;;;;;;;;;5076096;28;20036;-76
2021/07/27 06:29:31;;;;;;;10.55;9.00;;;;;;;;;;5076231;28;20028;-77
2021/07/27 06:31:57;;;;;;;11.85;9.23;;;;;;;;;;5074714;28;20075;-81
2021/07/27 06:34:23;;;;;;;8.30;7.60;;;;;;;;;;5075658;28;20036;-76
2021/07/27 06:36:49;;;;;;;12.13;8.75;;;;;;;;;;5075243;28;20462;-77
2021/07/27 06:39:17;;;;;;;11.45;9.35;;;;;;;;;;5075104;28;20539;-76
2021/07/27 06:41:43;;;;;;;25.58;12.07;;;;;;;;;;5074689;28;20029;-74
2021/07/27 06:44:09;;;;;;;13.85;11.77;;;;;;;;;;5075117;28;20470;-75
2021/07/27 06:46:37;;;;;;;27.55;11.15;;;;;;;;;;5080316;28;20107;-75
2021/07/27 06:49:04;;;;;;;20.92;9.27;;;;;;;;;;5075020;28;20021;-75
2021/07/27 06:51:30;;;;;;;22.35;9.77;;;;;;;;;;5088736;28;20081;-75
2021/07/27 06:53:56;;;;;;;15.75;9.23;;;;;;;;;;5094749;28;20101;-75
2021/07/27 06:56:22;;;;;;;24.00;10.23;;;;;;;;;;5095467;28;20028;-74
2021/07/27 06:58:49;;;;;;;13.50;9.40;;;;;;;;;;5094585;28;20044;-74
2021/07/27 07:01:15;;;;;;;24.08;10.43;;;;;;;;;;5092994;28;20024;-75
2021/07/27 07:03:42;;;;;;;18.73;9.60;;;;;;;;;;5095298;28;20114;-75
2021/07/27 07:06:09;;;;;;;18.73;9.02;;;;;;;;;;5094477;28;20100;-75
2021/07/27 07:08:35;;;;;;;18.38;10.32;;;;;;;;;;5094575;28;20020;-74
2021/07/27 07:11:02;;;;;;;24.73;9.98;;;;;;;;;;5082459;28;20036;-76
2021/07/27 07:13:28;;;;;;;12.32;8.57;;;;;;;;;;5074861;28;20064;-74
2021/07/27 07:15:54;;;;;;;16.55;9.05;;;;;;;;;;5074651;28;20024;-80
2021/07/27 07:18:21;;;;;;;12.68;9.32;;;;;;;;;;5072356;28;20032;-80
2021/07/27 07:20:47;;;;;;;10.30;8.40;;;;;;;;;;5080708;28;20037;-75
2021/07/27 07:23:13;;;;;;;14.80;8.90;;;;;;;;;;5094301;28;20024;-73
2021/07/27 07:25:45;;;;;;;13.35;10.23;;;;;;;;;;5101415;28;20027;-74
2021/07/27 07:28:51;;;;;;;22.92;9.70;;;;;;;;;;5104191;28;20027;-75
2021/07/27 07:31:22;;;;;;;10.60;8.80;;;;;;;;;;5094155;28;20544;-78
2021/07/27 07:33:48;;;;;;;16.65;9.52;;;;;;;;;;5077107;28;20386;-77
2021/07/27 07:36:15;;;;;;;15.65;9.27;;;;;;;;;;5074007;28;20073;-77
2021/07/27 07:38:41;;;;;;;14.18;8.98;;;;;;;;;;5074412;28;20040;-75
2021/07/27 07:41:07;;;;;;;11.10;9.38;;;;;;;;;;5072781;28;20081;-76
2021/07/27 07:43:34;;;;;;;16.63;10.25;;;;;;;;;;5074167;28;20040;-75
2021/07/27 07:46:00;;;;;;;21.08;9.75;;;;;;;;;;5073565;28;20028;-75
2021/07/27 07:48:26;;;;;;;17.80;9.27;;;;;;;;;;5072046;28;20116;-76
2021/07/27 07:50:52;;;;;;;10.20;9.07;;;;;;;;;;5080393;28;20028;-75
2021/07/27 07:53:18;;;;;;;11.18;9.70;;;;;;;;;;5094611;28;20058;-81
2021/07/27 07:55:44;;;;;;;13.57;8.65;;;;;;;;;;5094733;28;20465;-76
2021/07/27 07:58:10;;;;;;;11.82;8.20;;;;;;;;;;5094299;28;20054;-76
2021/07/27 08:00:37;;;;;;;10.45;9.43;;;;;;;;;;5084431;28;20031;-77
2021/07/27 08:03:04;;;;;;;15.95;12.35;;;;;;;;;;5070984;28;20016;-78
2021/07/27 08:05:30;;;;;;;10.70;8.70;;;;;;;;;;5075237;28;20020;-76
2021/07/27 08:07:56;;;;;;;13.18;8.88;;;;;;;;;;5077863;28;20108;-77
2021/07/27 08:10:22;;;;;;;10.50;8.15;;;;;;;;;;5080756;28;20020;-76
2021/07/27 08:12:48;;;;;;;21.85;8.90;;;;;;;;;;5098033;28;20035;-74
2021/07/27 08:15:16;;;;;;;13.18;8.85;;;;;;;;;;5097797;28;20097;-75
2021/07/27 08:17:42;;;;;;;12.60;8.48;;;;;;;;;;5097998;28;20465;-75
2021/07/27 08:20:08;;;;;;;15.73;8.68;;;;;;;;;;5094908;28;20042;-76
2021/07/27 08:22:38;;;;;;;21.35;9.70;;;;;;;;;;5098366;28;20027;-76
2021/07/27 08:25:05;;;;;;;17.80;7.78;;;;;;;;;;5097997;28;20020;-77
2021/07/27 08:27:31;;;;;;;13.90;8.88;;;;;;;;;;5097590;28;20111;-77
2021/07/27 08:29:57;;;;;;;23.25;8.38;;;;;;;;;;5094166;28;20028;-75
2021/07/27 08:32:23;;;;;;;15.68;9.10;;;;;;;;;;5077682;28;20481;-75
2021/07/27 08:34:49;;;;;;;12.52;8.50;;;;;;;;;;5077947;28;20021;-78
2021/07/27 08:37:15;;;;;;;13.63;8.43;;;;;;;;;;5077471;28;20531;-74
2021/07/27 08:39:41;;;;;;;10.60;8.25;;;;;;;;;;5078083;28;20369;-76
2021/07/27 08:42:07;;;;;;;19.35;10.35;;;;;;;;;;5076369;28;20027;-77
2021/07/27 08:44:34;;;;;;;14.15;8.63;;;;;;;;;;5078050;28;20025;-76
2021/07/27 08:47:01;;;;;;;16.23;8.70;;;;;;;;;;5077694;28;20449;-78
2021/07/27 08:49:28;;;;;;;14.57;8.63;;;;;;;;;;5077144;28;20021;-72
2021/07/27 08:51:55;;;;;;;13.73;9.25;;;;;;;;;;5076062;28;20024;-76
2021/07/27 08:54:21;;;;;;;19.10;9.20;;;;;;;;;;5077485;28;20053;-81
2021/07/27 08:56:48;;;;;;;14.65;8.27;;;;;;;;;;5076756;28;20024;-75
2021/07/27 08:59:14;;;;;;;12.13;8.50;;;;;;;;;;5076932;28;20111;-76
2021/07/27 09:01:40;;;;;;;20.10;10.60;;;;;;;;;;5075353;28;20101;-80
2021/07/27 09:04:06;;;;;;;12.60;8.18;;;;;;;;;;5075299;28;20028;-77
2021/07/27 09:06:32;;;;;;;15.13;9.80;;;;;;;;;;5076540;28;20108;-74
2021/07/27 09:09:06;;;;;;;13.45;8.65;;;;;;;;;;5076996;28;20051;-74
2021/07/27 09:11:32;;;;;;;20.33;9.70;;;;;;;;;;5075205;28;20383;-77
2021/07/27 09:13:58;;;;;;;11.73;9.52;;;;;;;;;;5076499;28;20032;-74
2021/07/27 09:16:24;;;;;;;17.52;9.27;;;;;;;;;;5075935;28;20103;-77
2021/07/27 09:19:05;;;;;;;11.77;8.30;;;;;;;;;;5076753;28;20124;-75
2021/07/27 09:21:31;;;;;;;24.50;9.93;;;;;;;;;;5089701;28;20024;-77
2021/07/27 09:23:57;;;;;;;12.25;8.82;;;;;;;;;;5097038;28;20052;-77
2021/07/27 09:26:24;;;;;;;10.85;8.80;;;;;;;;;;5096884;28;20027;-76
2021/07/27 09:29:00;;;;;;;14.85;9.85;;;;;;;;;;5093810;28;20042;-75
2021/07/27 09:31:26;;;;;;;12.18;8.52;;;;;;;;;;5079066;28;20089;-75
2021/07/27 09:33:53;;;;;;;17.88;10.43;;;;;;;;;;5075135;28;20466;-76
2021/07/27 09:36:24;;;;;;;17.48;9.75;;;;;;;;;;5075752;28;20485;-72
2021/07/27 09:39:05;;;;;;;21.17;10.43;;;;;;;;;;5076053;28;20075;-74
2021/07/27 09:41:31;;;;;;;18.92;12.73;;;;;;;;;;5074978;28;20021;-77
2021/07/27 09:43:57;;;;;;;11.82;9.07;;;;;;;;;;5075417;28;20457;-73
2021/07/27 09:46:25;;;;;;;23.33;10.88;;;;;;;;;;5071567;28;20024;-75
2021/07/27 09:48:51;;;;;;;11.30;9.80;;;;;;;;;;5071608;28;20025;-75
2021/07/27 09:51:17;;;;;;;12.73;9.95;;;;;;;;;;5070490;28;20098;-77
2021/07/27 09:53:44;;;;;;;31.33;10.68;;;;;;;;;;5071706;28;20051;-76
2021/07/27 09:56:10;;;;;;;16.92;9.55;;;;;;;;;;5075481;28;20031;-76
2021/07/27 09:58:37;;;;;;;14.52;10.38;;;;;;;;;;5075758;28;20033;-75
2021/07/27 10:01:05;;;;;;;16.85;10.82;;;;;;;;;;5075702;28;20025;-74
2021/07/27 10:03:33;;;;;;;17.33;11.57;;;;;;;;;;5075655;28;20021;-75
2021/07/27 10:06:00;;;;;;;15.63;10.45;;;;;;;;;;5071682;28;20033;-78
2021/07/27 10:08:30;;;;;;;21.00;10.13;;;;;;;;;;5075634;28;20107;-77
2021/07/27 10:11:11;;;;;;;16.52;11.43;;;;;;;;;;5075732;28;20371;-76
2021/07/27 10:13:37;;;;;;;;;;;;;;;;;;5076085;28;20432;-76
2021/07/27 10:16:04;;;;;;;17.52;11.00;;;;;;;;;;5073548;28;19904;-74
2021/07/27 10:18:30;;;;;;;12.70;9.85;;;;;;;;;;5074571;28;20032;-72
2021/07/27 10:21:23;;;;;;;22.50;10.85;;;;;;;;;;5074758;28;20356;-78
2021/07/27 10:23:49;;;;;;;18.60;10.57;;;;;;;;;;5074740;28;20029;-78
2021/07/27 10:26:25;;;;;;;15.38;10.80;;;;;;;;;;5074926;28;20115;-76
2021/07/27 10:28:54;;;;;;;14.55;10.38;;;;;;;;;;5073635;28;20484;-76
2021/07/27 10:31:29;;;;;;;13.98;10.05;;;;;;;;;;5075363;28;20024;-76
2021/07/27 10:33:55;;;;;;;16.25;11.02;;;;;;;;;;5075001;28;20029;-76
2021/07/27 10:36:26;;;;;;;13.93;11.30;;;;;;;;;;5074465;28;20025;-74
2021/07/27 10:38:52;;;;;;;17.60;12.50;;;;;;;;;;5074901;28;20036;-75
2021/07/27 10:41:19;;;;;;;12.48;11.27;;;;;;;;;;5074717;28;20111;-77
2021/07/27 10:43:45;;;;;;;13.15;11.55;;;;;;;;;;5074705;28;20094;-77
2021/07/27 10:46:11;;;;;;;15.35;11.32;;;;;;;;;;5074608;28;20052;-75
2021/07/27 10:48:38;;;;;;;11.13;10.10;;;;;;;;;;5074901;28;20032;-72
2021/07/27 10:51:06;;;;;;;14.43;10.75;;;;;;;;;;5074389;28;20028;-76
2021/07/27 10:53:33;;;;;;;12.90;11.20;;;;;;;;;;5074263;28;20368;-77
2021/07/27 10:56:02;;;;;;;16.13;9.48;;;;;;;;;;5076072;28;20139;-83
2021/07/27 10:58:28;;;;;;;13.02;11.68;;;;;;;;;;5074349;28;20078;-76
2021/07/27 11:00:55;;;;;;;12.43;11.05;;;;;;;;;;5074977;28;20454;-83
2021/07/27 11:03:28;;;;;;;14.05;10.27;;;;;;;;;;5074452;28;20028;-74
2021/07/27 11:06:02;;;;;;;11.07;10.00;;;;;;;;;;5074191;28;20059;-77
2021/07/27 11:08:28;;;;;;;12.40;11.20;;;;;;;;;;5074200;28;20107;-78
2021/07/27 11:11:10;;;;;;;11.20;9.63;;;;;;;;;;5073906;28;20453;-76
2021/07/27 11:13:36;;;;;;;15.60;9.55;;;;;;;;;;5074058;28;20466;-76
2021/07/27 11:16:02;;;;;;;19.75;11.10;;;;;;;;;;5073885;28;20024;-76
2021/07/27 11:18:29;;;;;;;19.35;11.70;;;;;;;;;;5079508;28;20051;-74
2021/07/27 11:20:55;;;;;;;12.68;11.30;;;;;;;;;;5088783;28;20036;-78
2021/07/27 11:23:21;;;;;;;15.38;10.35;;;;;;;;;;5087205;28;20016;-78
2021/07/27 11:25:57;;;;;;;13.43;9.93;;;;;;;;;;5092965;28;20437;-81
2021/07/27 11:28:33;;;;;;;14.02;10.10;;;;;;;;;;5085619;28;20013;-76
2021/07/27 11:30:59;;;;;;;11.00;10.00;;;;;;;;;;5086464;28;20470;-78
2021/07/27 11:33:25;;;;;;;18.10;10.32;;;;;;;;;;5081755;28;20017;-83
2021/07/27 11:35:51;;;;;;;11.45;8.73;;;;;;;;;;5084855;28;20040;-78
2021/07/27 11:38:21;;;;;;;19.70;10.30;;;;;;;;;;5082722;28;20032;-75
2021/07/27 11:40:48;;;;;;;13.40;10.10;;;;;;;;;;5084049;28;20024;-80
2021/07/27 11:43:14;;;;;;;16.23;10.32;;;;;;;;;;5083542;28;20049;-78
2021/07/27 11:45:40;;;;;;;10.85;9.80;;;;;;;;;;5088574;28;20051;-77
2021/07/27 11:48:07;;;;;;;12.30;10.30;;;;;;;;;;5081852;28;20035;-78
2021/07/27 11:50:34;;;;;;;12.70;10.80;;;;;;;;;;5080671;28;20037;-77
2021/07/27 11:53:00;;;;;;;15.77;10.30;;;;;;;;;;5082633;28;20451;-76
2021/07/27 11:55:31;;;;;;;12.82;9.88;;;;;;;;;;5076138;28;20032;-79
2021/07/27 11:57:57;;;;;;;14.38;12.75;;;;;;;;;;5090037;28;20034;-75
2021/07/27 12:00:23;;;;;;;15.07;10.32;;;;;;;;;;5092387;28;20020;-73
2021/07/27 12:02:49;;;;;;;14.68;9.30;;;;;;;;;;5092652;28;20024;-78
2021/07/27 12:05:15;;;;;;;11.57;9.43;;;;;;;;;;5092093;28;20119;-77
2021/07/27 12:07:41;;;;;;;10.80;9.80;;;;;;;;;;5093072;28;20083;-78
2021/07/27 12:10:08;;;;;;;14.57;10.48;;;;;;;;;;5092125;28;20503;-81
2021/07/27 12:12:34;;;;;;;10.50;9.40;;;;;;;;;;5091761;28;20017;-78
2021/07/27 12:15:01;;;;;;;13.43;9.27;;;;;;;;;;5092670;28;20024;-80
2021/07/27 12:17:28;;;;;;;10.55;8.80;;;;;;;;;;5092236;28;20028;-79
2021/07/27 12:19:54;;;;;;;10.98;9.32;;;;;;;;;;5089767;28;20168;-86
2021/07/27 12:22:20;;;;;;;10.38;9.27;;;;;;;;;;5092639;28;20016;-81
2021/07/27 12:24:46;;;;;;;12.20;9.63;;;;;;;;;;5092665;28;20485;-81
2021/07/27 12:27:12;;;;;;;15.52;9.60;;;;;;;;;;5092832;28;20415;-79
2021/07/27 12:29:38;;;;;;;9.07;8.23;;;;;;;;;;5092304;28;20062;-79
2021/07/27 12:32:05;;;;;;;11.57;9.10;;;;;;;;;;5092575;28;20024;-76
2021/07/27 12:34:31;;;;;;;11.15;8.02;;;;;;;;;;5092100;28;20477;-77
2021/07/27 12:36:57;;;;;;;13.20;8.55;;;;;;;;;;5090308;28;20016;-76
2021/07/27 12:39:23;;;;;;;10.45;8.95;;;;;;;;;;5092619;28;20089;-77
2021/07/27 12:41:50;;;;;;;13.00;9.27;;;;;;;;;;5091758;28;20492;-77
2021/07/27 12:44:16;;;;;;;9.57;8.68;;;;;;;;;;5092602;28;20081;-74
2021/07/27 12:46:43;;;;;;;9.98;8.40;;;;;;;;;;5091968;28;20091;-76
2021/07/27 12:49:13;;;;;;;14.27;9.13;;;;;;;;;;5092431;28;20039;-78
2021/07/27 12:51:39;;;;;;;10.40;9.40;;;;;;;;;;5094401;28;20435;-78
2021/07/27 12:54:05;;;;;;;13.43;8.55;;;;;;;;;;5096585;28;20086;-74
2021/07/27 12:56:31;;;;;;;12.30;8.70;;;;;;;;;;5095761;28;20036;-75
2021/07/27 12:58:58;;;;;;;8.88;8.07;;;;;;;;;;5095735;28;20039;-77
2021/07/27 13:01:24;;;;;;;8.77;8.05;;;;;;;;;;5096002;28;20020;-75
2021/07/27 13:03:51;;;;;;;10.68;7.90;;;;;;;;;;5095240;28;20092;-75
2021/07/27 13:06:17;;;;;;;9.77;7.93;;;;;;;;;;5094618;28;20016;-76
2021/07/27 13:08:43;;;;;;;10.35;8.32;;;;;;;;;;5095035;28;20024;-77
2021/07/27 13:11:11;;;;;;;10.80;8.93;;;;;;;;;;5095456;28;20024;-76
2021/07/27 13:13:37;;;;;;;8.15;7.45;;;;;;;;;;5096535;28;20024;-74
2021/07/27 13:16:04;;;;;;;9.13;7.95;;;;;;;;;;5095853;28;20073;-82
2021/07/27 13:18:30;;;;;;;9.77;7.28;;;;;;;;;;5096674;28;20044;-80
2021/07/27 13:20:56;;;;;;;12.65;8.18;;;;;;;;;;5096475;28;20016;-89
2021/07/27 13:23:22;;;;;;;9.10;6.88;;;;;;;;;;5098493;28;20378;-85
2021/07/27 13:25:48;;;;;;;8.48;7.65;;;;;;;;;;5097812;28;20024;-78
2021/07/27 13:28:14;;;;;;;8.90;8.02;;;;;;;;;;5097402;28;20036;-77
2021/07/27 13:30:40;;;;;;;7.18;6.57;;;;;;;;;;5095679;28;20028;-76
2021/07/27 13:33:06;;;;;;;8.10;6.53;;;;;;;;;;5097339;28;20081;-79
2021/07/27 13:35:32;;;;;;;7.43;6.55;;;;;;;;;;5097694;28;20031;-78
2021/07/27 13:37:58;;;;;;;7.05;6.45;;;;;;;;;;5097470;28;20039;-77
2021/07/27 13:40:25;;;;;;;7.18;5.63;;;;;;;;;;5097236;28;20024;-78
2021/07/27 13:42:51;;;;;;;13.55;5.55;;;;;;;;;;5097101;28;20069;-81
2021/07/27 13:45:17;;;;;;;10.15;5.78;;;;;;;;;;5087529;28;20035;-81
2021/07/27 13:47:43;;;;;;;6.90;6.28;;;;;;;;;;5077490;28;20367;-77
2021/07/27 13:50:13;;;;;;;7.47;6.53;;;;;;;;;;5077787;28;20058;-79
2021/07/27 13:53:04;;;;;;;6.35;5.43;;;;;;;;;;5073925;28;20057;-80
2021/07/27 13:55:34;;;;;;;7.28;5.88;;;;;;;;;;5084610;28;20056;-81
2021/07/27 13:58:00;;;;;;;7.40;6.00;;;;;;;;;;5077359;28;20102;-81
2021/07/27 14:00:26;;;;;;;11.77;6.10;;;;;;;;;;5077446;28;20036;-78
2021/07/27 14:02:52;;;;;;;8.50;6.35;;;;;;;;;;5076517;28;20029;-77
2021/07/27 14:05:21;;;;;;;8.68;6.20;;;;;;;;;;5078190;28;20043;-88
2021/07/27 14:07:48;;;;;;;8.50;6.38;;;;;;;;;;5077935;28;20035;-80
2021/07/27 14:10:14;;;;;;;10.43;6.72;;;;;;;;;;5078078;28;20036;-84
2021/07/27 14:12:40;;;;;;;8.88;5.95;;;;;;;;;;5077090;28;20028;-80
2021/07/27 14:15:06;;;;;;;10.25;6.30;;;;;;;;;;5078320;28;20055;-81
2021/07/27 14:17:32;;;;;;;7.85;6.35;;;;;;;;;;5077184;28;20039;-77
2021/07/27 14:19:58;;;;;;;19.67;6.18;;;;;;;;;;5078606;28;20489;-81
2021/07/27 14:22:27;;;;;;;6.90;6.20;;;;;;;;;;5077536;28;20090;-81
2021/07/27 14:24:53;;;;;;;11.63;6.22;;;;;;;;;;5079542;28;20028;-76
2021/07/27 14:27:19;;;;;;;7.43;5.22;;;;;;;;;;5096530;28;20032;-78
2021/07/27 14:29:45;;;;;;;12.15;6.93;;;;;;;;;;5096605;28;20016;-84
2021/07/27 14:32:11;;;;;;;7.07;6.40;;;;;;;;;;5095536;28;20032;-78
2021/07/27 14:34:38;;;;;;;7.35;5.90;;;;;;;;;;5093107;28;20428;-77
2021/07/27 14:37:05;;;;;;;13.35;5.43;;;;;;;;;;5074966;28;20074;-79
2021/07/27 14:39:31;;;;;;;8.80;6.30;;;;;;;;;;5076185;28;20063;-83
2021/07/27 14:41:57;;;;;;;13.43;6.25;;;;;;;;;;5075474;28;20123;-79
2021/07/27 14:44:23;;;;;;;6.28;5.38;;;;;;;;;;5076694;28;20475;-80
2021/07/27 14:46:49;;;;;;;6.72;6.13;;;;;;;;;;5075002;28;20469;-80